Rodman, New York
Current Conditions -  °F | °C
As of 1:56 AM on Thursday 23 Oct 2014 (Local Time) from KART Reporting Station
Clear Clear  
Wind Chill: 41°   Ceiling: Unl
Heat Index: 47°   Visibility: 10mi
Dew Point: 33°   Wind: 15mph
Humidity: 59%   Direction: 30°NNE
Pressure: 30.08"   Gusts: NA
Location:  43.85°N, 75.94°W
Report Text: KART 230556Z AUTO 03013KT 10SM CLR 08/01 A3008 RMK AO2 SLP188 T00830006 10094 20078 56014
Loading
Personal Weather Stations






























Interactive Weather Map
Tropical Storm Tracking
New forecast layout! Learn more

10-Day Weather Forecast

Advertisements
Track Severe Weather on mobile